AirNav   Air Wisconsin Up To $57,000 Bonus
 
 519 users online  

KHBZ Heber Springs Municipal Airport
Heber Springs, Arkansas, USA

GOING TO HEBER SPRINGS?


FAA INFORMATION EFFECTIVE 11 AUGUST 2022

Location

FAA Identifier: HBZ
Lat/Long: 35-30-42.0980N 092-00-46.8340W
35-30.701633N 092-00.780567W
35.5116939,-92.0130094
(estimated)
Elevation: 632.3 ft. / 192.7 m (surveyed)
Variation: 00E (2020)
From city: 2 miles NE of HEBER SPRINGS, AR
Time zone: UTC -5 (UTC -6 during Standard Time)
Zip code: 72543

Airport Operations

Airport use: Open to the public
Activation date: 10/1968
Control tower: no
ARTCC: MEMPHIS CENTER
FSS: JONESBORO FLIGHT SERVICE STATION
NOTAMs facility: JBR (NOTAM-D service available)
Attendance: 0800-1700
Pattern altitude: 1430.3 ft. MSL
Wind indicator: lighted
Segmented circle: yes
Lights: DUSK-DAWN. ACTVT REIL RWY 06/24 AND MIRL RWY 06/24 - CTAF.
Beacon: white-green (lighted land airport)
Operates sunset to sunrise.

Airport Communications

CTAF/UNICOM: 122.7
  • APCH/DEP SVC PRVDD BY MEMPHIS ARTCC ON FREQS 126.85/281.55 (BRINKLEY RCAG).

Airport Services

Fuel available: 100LL JET-A
100LL:SELF-SERVICE FUEL AVBL 24 HRS WITH CREDIT CARD (100LL & JET A)
Parking: tiedowns
Airframe service: MAJOR
Powerplant service: MAJOR
Bottled oxygen: NONE
Bulk oxygen: NONE

Runway Information

Runway 6/24

Dimensions: 4002 x 75 ft. / 1220 x 23 m
Surface: asphalt, in good condition
Weight bearing capacity: 
Single wheel: 12.5
Runway edge lights: medium intensity
RUNWAY 6  RUNWAY 24
Latitude: 35-30.534500N35-30.868667N
Longitude: 092-01.128333W092-00.432833W
Elevation: 620.4 ft.631.9 ft.
Traffic pattern: leftleft
Runway heading: 060240
Markings: nonprecision, in good conditionnonprecision, in good condition
Visual slope indicator: 2-light PAPI on left (3.00 degrees glide path)2-light PAPI on left (3.00 degrees glide path)
Runway end identifier lights: yesyes
Touchdown point: yes, no lightsyes, no lights
Obstructions: 34 ft. trees, 705 ft. from runway, 180 ft. right of centerline, 14:1 slope to clear15 ft. trees, 825 ft. from runway, 41 ft. both sides of centerline, 25:1 slope to clear

Airport Ownership and Management from official FAA records

Ownership: Publicly-owned
Owner: CITY OF HEBER SPRINGS
1001 WEST MAIN
HEBER SPRINGS, AR 72543
Phone 501-362-3635
Manager: CHARLES EVANS
2111 AIRPORT RD
HEBER SPRINGS, AR 72543
Phone 501-362-3294

Airport Operational Statistics

Aircraft based on the field: 32
Single engine airplanes: 29
Multi engine airplanes: 3
    
Aircraft operations: avg 53/day *
77% local general aviation
21% transient general aviation
3% military
* for 12-month period ending 31 July 2017

Additional Remarks

RWY 06/24 NO LINE OF SIGHT BTN RY ENDS.
FOR CD CTC MEMPHIS ARTCC AT 901-368-8453/8449.

Instrument Procedures

NOTE: All procedures below are presented as PDF files. If you need a reader for these files, you should download the free Adobe Reader.

NOT FOR NAVIGATION. Please procure official charts for flight.
FAA instrument procedures published for use from 11 August 2022 at 0901Z to 08 September 2022 at 0900z.

 
IAPs - Instrument Approach Procedures
RNAV (GPS) RWY 06   download (241KB)
RNAV (GPS) RWY 24   download (257KB)
NOTE: Special Take-Off Minimums/Departure Procedures apply   download (408KB)

Other nearby airports with instrument procedures:

2A2 - Holley Mountain Airpark (21 nm NW)
7M2 - Mountain View Airport-Wilcox Memorial Field (22 nm N)
KBVX - Batesville Regional Airport (22 nm NE)
KCCA - Clinton Municipal Airport (22 nm W)
KSRC - Searcy Municipal Airport (23 nm SE)
 
Loc | Ops | Rwys | IFR | FBO | Links
Com | Nav | Svcs | Stats | Notes
Area around KHBZ (Heber Springs Municipal Airport)
 
Road maps at: MapQuest Bing Google
 
Aerial photo
WARNING: Photo may not be current or correct
Aerial photo of KHBZ (Heber Springs Municipal Airport)
Photo courtesy of the Arkansas Department of Aeronautics
Taken in the Spring of 2007

Do you have a better or more recent aerial photo of Heber Springs Municipal Airport that you would like to share? If so, please send us your photo.

 
Sectional chart

 
Airport distance calculator
Flying to Heber Springs Municipal Airport? Find the distance to fly.

From to KHBZ

Sunrise and sunset
Times for 11-Aug-2022
 Local
(UTC-5)
 Zulu
(UTC)
Morning civil twilight05:5810:58
Sunrise06:2511:25
Sunset20:0101:01
Evening civil twilight20:2901:29

Current date and time
Zulu (UTC)  11-Aug-2022 10:14:23
Local (UTC-5)  11-Aug-2022 05:14:23
 
METAR
KSRC 
21nm SE 
110956Z AUTO 03006KT 10SM BKN008 OVC075 24/23 A3007 RMK AO2 SLP179 T02390228
KBVX 
22nm NE 
110956Z AUTO VRB04KT 10SM CLR 22/21 A3010 RMK AO2 SLP188 T02220211
KCCA 
22nm W 
110955Z AUTO 00000KT 4SM BR SCT027 BKN043 22/21 A3009 RMK AO2
KLRF 
36nm S 
110856Z 00000KT 10SM OVC070 23/24 A3003 RMK AO2A SLP169 T02330242 57006 $
KCXW 
40nm SW 
110950Z AUTO 04004KT 7SM OVC007 24/24 A3006 RMK A01
KM19 
42nm E 
110956Z AUTO 03009KT 10SM CLR 22/21 A3008 RMK AO2 SLP182 T02170211
TAF
KLRF 
36nm S 
110704Z 1107/1213 VRB06KT 9999 SKC QNH3005INS BECMG 1107/1108 07005KT 6000 BR OVC015 QNH3007INS BECMG 1115/1116 06005KT 9999 NSW FEW040 QNH3010INS BECMG 1202/1203 06005KT 9999 BKN030 QNH3006INS TX31/1120Z TN24/1206Z
NOTAMs
Click for the latest NOTAMs
NOTAMs are issued by the DoD/FAA and will open in a separate window not controlled by AirNav.

 

 
 

FBO, Fuel Providers, and Aircraft Ground Support

  
 Business Name 
 
 Contact 
 
 Services / Description 
 
Fuel Prices
 
Comments
  
Heber Springs Municipal Airport 501-362-3294
no information available

If you are affiliated with Heber Springs Municipal Airport and would like to show here your services, contact info, web link, logo, and more, click here
100LL Jet A
SS $7.29 $5.09 
 Updated 22-Jul-2022
 
   2 read write
SS=Self service
Update Fuel Prices
 

Would you like to see your business listed on this page?

 If your business provides an interesting product or service to pilots, flight crews, aircraft, or users of the Heber Springs Municipal Airport, you should consider listing it here.  To start the listing process, click on the button below
 
Add a business
 

Other Pages about Heber Springs Municipal Airport

Update a link
 
Copyright © AirNav, LLC. All rights reserved. Privacy Policy  Contact